SANE/SDE METAR and TAF weather

Enter ICAO airport designator
Station Type Date Time Source
SANE METAR 2019/04/15 15:17 UTC NOAA

SANE 151517Z 09005KT 8000 DZ BKN010 BKN020 24/22 Q1015


Station Type Date Time Source
SANE Decoded METAR 2019/04/15 15:17 UTC NOAA

Santiago Del Estero Aero., Argentina (SANE) 27-46S 064-18W 199M
Apr 15, 2019 - 11:17 AM EDT / 2019.04.15 1517 UTC
Wind: from the E (090 degrees) at 6 MPH (5 KT):0
Visibility: 4 mile(s):0
Sky conditions: mostly cloudy
Weather: drizzle
Temperature: 75 F (24 C)
Dew Point: 71 F (22 C)
Relative Humidity: 88%
Pressure (altimeter): 29.97 in. Hg (1015 hPa)
ob: SANE 151517Z 09005KT 8000 DZ BKN010 BKN020 24/22 Q1015
cycle: 15

Station Type Date Time Source
SANE TAF 2019/04/05 06:21 UTC NOAA

TAF TAF SANE 050500Z 0506/0606 16015KT 6000 RASH BKN020 BKN030 FEW040CB TX24/0518Z TN16/0510Z
BECMG 0508/0511 18010KT 9999 BKN025

Example: see airport list